sensor_id;sensor_type;location;lat;lon;timestamp;temperature;humidity
2042;DHT22;1026;51.460;7.252;2022-07-29T00:02:18;22.60;54.20
2042;DHT22;1026;51.460;7.252;2022-07-29T00:04:43;22.60;54.10
2042;DHT22;1026;51.460;7.252;2022-07-29T00:07:09;22.60;54.30
2042;DHT22;1026;51.460;7.252;2022-07-29T00:09:35;22.60;54.30
2042;DHT22;1026;51.460;7.252;2022-07-29T00:12:01;22.50;54.30
2042;DHT22;1026;51.460;7.252;2022-07-29T00:14:27;22.50;54.40
2042;DHT22;1026;51.460;7.252;2022-07-29T00:16:53;22.50;54.40
2042;DHT22;1026;51.460;7.252;2022-07-29T00:19:19;22.50;54.40
2042;DHT22;1026;51.460;7.252;2022-07-29T00:21:45;22.50;54.50
2042;DHT22;1026;51.460;7.252;2022-07-29T00:24:10;22.50;54.40
2042;DHT22;1026;51.460;7.252;2022-07-29T00:26:36;22.40;54.50
2042;DHT22;1026;51.460;7.252;2022-07-29T00:29:03;22.40;54.50
2042;DHT22;1026;51.460;7.252;2022-07-29T00:31:29;22.40;54.50
2042;DHT22;1026;51.460;7.252;2022-07-29T00:33:55;22.40;54.60
2042;DHT22;1026;51.460;7.252;2022-07-29T00:36:21;22.40;54.60
2042;DHT22;1026;51.460;7.252;2022-07-29T00:38:48;22.40;54.50
2042;DHT22;1026;51.460;7.252;2022-07-29T00:41:14;22.40;54.70
2042;DHT22;1026;51.460;7.252;2022-07-29T00:43:40;22.40;55.40
2042;DHT22;1026;51.460;7.252;2022-07-29T00:46:06;22.30;54.70
2042;DHT22;1026;51.460;7.252;2022-07-29T00:48:32;22.30;54.80
2042;DHT22;1026;51.460;7.252;2022-07-29T00:50:58;22.30;54.90
2042;DHT22;1026;51.460;7.252;2022-07-29T00:53:25;22.30;54.90
2042;DHT22;1026;51.460;7.252;2022-07-29T00:55:53;22.30;55.00
2042;DHT22;1026;51.460;7.252;2022-07-29T00:58:20;22.30;54.80
2042;DHT22;1026;51.460;7.252;2022-07-29T01:00:46;22.30;55.00
2042;DHT22;1026;51.460;7.252;2022-07-29T01:03:12;22.20;55.00
2042;DHT22;1026;51.460;7.252;2022-07-29T01:05:38;22.20;54.90
2042;DHT22;1026;51.460;7.252;2022-07-29T01:08:06;22.20;55.10
2042;DHT22;1026;51.460;7.252;2022-07-29T01:10:33;22.20;55.10
2042;DHT22;1026;51.460;7.252;2022-07-29T01:13:00;22.20;55.20
2042;DHT22;1026;51.460;7.252;2022-07-29T01:15:26;22.10;55.20
2042;DHT22;1026;51.460;7.252;2022-07-29T01:18:30;22.10;55.20
2042;DHT22;1026;51.460;7.252;2022-07-29T01:21:17;22.10;55.20
2042;DHT22;1026;51.460;7.252;2022-07-29T01:26:28;22.10;55.40
2042;DHT22;1026;51.460;7.252;2022-07-29T01:29:01;22.10;55.40
2042;DHT22;1026;51.460;7.252;2022-07-29T01:34:02;22.00;55.30
2042;DHT22;1026;51.460;7.252;2022-07-29T01:36:43;22.00;55.40
2042;DHT22;1026;51.460;7.252;2022-07-29T01:39:14;22.00;55.50
2042;DHT22;1026;51.460;7.252;2022-07-29T01:41:49;22.00;55.50
2042;DHT22;1026;51.460;7.252;2022-07-29T01:44:22;22.00;55.50
2042;DHT22;1026;51.460;7.252;2022-07-29T01:46:53;22.00;55.60
2042;DHT22;1026;51.460;7.252;2022-07-29T01:49:24;21.90;55.50
2042;DHT22;1026;51.460;7.252;2022-07-29T01:51:54;21.90;55.60
2042;DHT22;1026;51.460;7.252;2022-07-29T01:54:46;21.90;55.60
2042;DHT22;1026;51.460;7.252;2022-07-29T01:57:16;21.90;55.70
2042;DHT22;1026;51.460;7.252;2022-07-29T01:59:43;21.90;55.70
2042;DHT22;1026;51.460;7.252;2022-07-29T02:02:11;21.80;55.60
2042;DHT22;1026;51.460;7.252;2022-07-29T02:04:40;21.80;55.70
2042;DHT22;1026;51.460;7.252;2022-07-29T02:07:11;21.80;55.70
2042;DHT22;1026;51.460;7.252;2022-07-29T02:09:39;21.80;55.70
2042;DHT22;1026;51.460;7.252;2022-07-29T02:12:07;21.80;55.80
2042;DHT22;1026;51.460;7.252;2022-07-29T02:14:37;21.80;55.80
2042;DHT22;1026;51.460;7.252;2022-07-29T02:17:03;21.80;55.90
2042;DHT22;1026;51.460;7.252;2022-07-29T02:19:32;21.80;56.00
2042;DHT22;1026;51.460;7.252;2022-07-29T02:21:58;21.70;56.00
2042;DHT22;1026;51.460;7.252;2022-07-29T02:24:25;21.70;56.00
2042;DHT22;1026;51.460;7.252;2022-07-29T02:26:55;21.70;56.10
2042;DHT22;1026;51.460;7.252;2022-07-29T02:29:24;21.70;56.10
2042;DHT22;1026;51.460;7.252;2022-07-29T02:31:51;21.70;56.10
2042;DHT22;1026;51.460;7.252;2022-07-29T02:34:20;21.70;56.10
2042;DHT22;1026;51.460;7.252;2022-07-29T02:36:46;21.60;56.00
2042;DHT22;1026;51.460;7.252;2022-07-29T02:39:14;21.70;56.10
2042;DHT22;1026;51.460;7.252;2022-07-29T02:44:14;21.60;56.10
2042;DHT22;1026;51.460;7.252;2022-07-29T02:46:48;21.60;56.10
2042;DHT22;1026;51.460;7.252;2022-07-29T02:49:16;21.60;56.10
2042;DHT22;1026;51.460;7.252;2022-07-29T02:51:51;21.60;56.10
2042;DHT22;1026;51.460;7.252;2022-07-29T02:54:41;21.50;56.00
2042;DHT22;1026;51.460;7.252;2022-07-29T02:57:17;21.50;56.10
2042;DHT22;1026;51.460;7.252;2022-07-29T02:59:45;21.50;56.00
2042;DHT22;1026;51.460;7.252;2022-07-29T03:02:14;21.50;56.10
2042;DHT22;1026;51.460;7.252;2022-07-29T03:04:42;21.50;56.10
2042;DHT22;1026;51.460;7.252;2022-07-29T03:07:09;21.50;56.10
2042;DHT22;1026;51.460;7.252;2022-07-29T03:09:36;21.40;56.10
2042;DHT22;1026;51.460;7.252;2022-07-29T03:12:02;21.40;56.10
2042;DHT22;1026;51.460;7.252;2022-07-29T03:14:30;21.30;56.10
2042;DHT22;1026;51.460;7.252;2022-07-29T03:16:57;21.40;56.10
2042;DHT22;1026;51.460;7.252;2022-07-29T03:19:23;21.40;56.20
2042;DHT22;1026;51.460;7.252;2022-07-29T03:21:49;21.40;56.20
2042;DHT22;1026;51.460;7.252;2022-07-29T03:24:32;21.30;56.20
2042;DHT22;1026;51.460;7.252;2022-07-29T03:26:58;21.30;56.20
2042;DHT22;1026;51.460;7.252;2022-07-29T03:29:25;21.30;56.20
2042;DHT22;1026;51.460;7.252;2022-07-29T03:31:51;21.30;56.30
2042;DHT22;1026;51.460;7.252;2022-07-29T03:34:16;21.30;56.20
2042;DHT22;1026;51.460;7.252;2022-07-29T03:36:42;21.30;56.30
2042;DHT22;1026;51.460;7.252;2022-07-29T03:39:09;21.30;56.30
2042;DHT22;1026;51.460;7.252;2022-07-29T03:41:37;21.30;56.30
2042;DHT22;1026;51.460;7.252;2022-07-29T03:44:05;21.30;56.40
2042;DHT22;1026;51.460;7.252;2022-07-29T03:46:34;21.30;56.40
2042;DHT22;1026;51.460;7.252;2022-07-29T03:49:02;21.20;56.20
2042;DHT22;1026;51.460;7.252;2022-07-29T03:51:30;21.20;56.20
2042;DHT22;1026;51.460;7.252;2022-07-29T03:53:56;21.20;56.30
2042;DHT22;1026;51.460;7.252;2022-07-29T03:56:22;21.20;56.50
2042;DHT22;1026;51.460;7.252;2022-07-29T03:58:50;21.10;56.30
2042;DHT22;1026;51.460;7.252;2022-07-29T04:01:17;21.20;56.50
2042;DHT22;1026;51.460;7.252;2022-07-29T04:03:44;21.10;56.40
2042;DHT22;1026;51.460;7.252;2022-07-29T04:06:12;21.10;56.40
2042;DHT22;1026;51.460;7.252;2022-07-29T04:08:38;21.10;56.30
2042;DHT22;1026;51.460;7.252;2022-07-29T04:11:04;21.10;56.40
2042;DHT22;1026;51.460;7.252;2022-07-29T04:13:31;21.10;56.50
2042;DHT22;1026;51.460;7.252;2022-07-29T04:15:57;21.10;56.50
2042;DHT22;1026;51.460;7.252;2022-07-29T04:18:22;21.10;56.60
2042;DHT22;1026;51.460;7.252;2022-07-29T04:20:48;21.10;56.60
2042;DHT22;1026;51.460;7.252;2022-07-29T04:23:14;21.00;56.50
2042;DHT22;1026;51.460;7.252;2022-07-29T04:25:40;21.00;56.60
2042;DHT22;1026;51.460;7.252;2022-07-29T04:28:07;21.00;56.50
2042;DHT22;1026;51.460;7.252;2022-07-29T04:30:33;20.90;56.50
2042;DHT22;1026;51.460;7.252;2022-07-29T04:33:01;21.00;56.70
2042;DHT22;1026;51.460;7.252;2022-07-29T04:35:28;21.00;56.50
2042;DHT22;1026;51.460;7.252;2022-07-29T04:37:53;21.00;56.50
2042;DHT22;1026;51.460;7.252;2022-07-29T04:40:19;20.90;56.60
2042;DHT22;1026;51.460;7.252;2022-07-29T04:42:45;20.90;56.50
2042;DHT22;1026;51.460;7.252;2022-07-29T04:45:11;20.90;56.70
2042;DHT22;1026;51.460;7.252;2022-07-29T04:47:36;21.00;56.80
2042;DHT22;1026;51.460;7.252;2022-07-29T04:50:02;20.90;56.70
2042;DHT22;1026;51.460;7.252;2022-07-29T04:52:28;20.90;56.60
2042;DHT22;1026;51.460;7.252;2022-07-29T04:54:54;20.90;56.60
2042;DHT22;1026;51.460;7.252;2022-07-29T04:57:19;20.90;56.80
2042;DHT22;1026;51.460;7.252;2022-07-29T04:59:45;20.90;56.80
2042;DHT22;1026;51.460;7.252;2022-07-29T05:02:11;20.90;56.80
2042;DHT22;1026;51.460;7.252;2022-07-29T05:04:36;20.90;56.70
2042;DHT22;1026;51.460;7.252;2022-07-29T05:07:02;20.90;56.90
2042;DHT22;1026;51.460;7.252;2022-07-29T05:09:28;20.80;56.90
2042;DHT22;1026;51.460;7.252;2022-07-29T05:11:53;20.80;57.00
2042;DHT22;1026;51.460;7.252;2022-07-29T05:14:19;20.80;57.00
2042;DHT22;1026;51.460;7.252;2022-07-29T05:16:44;20.80;57.00
2042;DHT22;1026;51.460;7.252;2022-07-29T05:19:10;20.80;57.10
2042;DHT22;1026;51.460;7.252;2022-07-29T05:21:51;20.80;57.00
2042;DHT22;1026;51.460;7.252;2022-07-29T05:24:16;20.80;57.10
2042;DHT22;1026;51.460;7.252;2022-07-29T05:26:42;20.80;57.20
2042;DHT22;1026;51.460;7.252;2022-07-29T05:29:08;20.80;57.10
2042;DHT22;1026;51.460;7.252;2022-07-29T05:31:34;20.70;57.10
2042;DHT22;1026;51.460;7.252;2022-07-29T05:34:00;20.70;57.10
2042;DHT22;1026;51.460;7.252;2022-07-29T05:36:26;20.70;57.20
2042;DHT22;1026;51.460;7.252;2022-07-29T05:38:51;20.70;57.30
2042;DHT22;1026;51.460;7.252;2022-07-29T05:41:18;20.70;57.30
2042;DHT22;1026;51.460;7.252;2022-07-29T05:43:44;20.80;57.30
2042;DHT22;1026;51.460;7.252;2022-07-29T05:46:09;20.70;57.40
2042;DHT22;1026;51.460;7.252;2022-07-29T05:48:35;20.70;57.40
2042;DHT22;1026;51.460;7.252;2022-07-29T05:51:01;20.70;57.40
2042;DHT22;1026;51.460;7.252;2022-07-29T05:53:27;20.70;57.40
2042;DHT22;1026;51.460;7.252;2022-07-29T05:55:53;20.60;57.30
2042;DHT22;1026;51.460;7.252;2022-07-29T05:58:19;20.70;57.40
2042;DHT22;1026;51.460;7.252;2022-07-29T06:00:45;20.70;57.40
2042;DHT22;1026;51.460;7.252;2022-07-29T06:03:11;20.60;57.40
2042;DHT22;1026;51.460;7.252;2022-07-29T06:05:36;20.60;57.40
2042;DHT22;1026;51.460;7.252;2022-07-29T06:08:02;20.60;57.40
2042;DHT22;1026;51.460;7.252;2022-07-29T06:10:29;20.60;57.40
2042;DHT22;1026;51.460;7.252;2022-07-29T06:12:55;20.60;57.40
2042;DHT22;1026;51.460;7.252;2022-07-29T06:15:20;20.60;57.50
2042;DHT22;1026;51.460;7.252;2022-07-29T06:17:46;20.60;57.40
2042;DHT22;1026;51.460;7.252;2022-07-29T06:20:13;20.60;57.60
2042;DHT22;1026;51.460;7.252;2022-07-29T06:22:38;20.60;57.60
2042;DHT22;1026;51.460;7.252;2022-07-29T06:25:04;20.60;57.60
2042;DHT22;1026;51.460;7.252;2022-07-29T06:27:30;20.60;57.60
2042;DHT22;1026;51.460;7.252;2022-07-29T06:29:57;20.60;57.60
2042;DHT22;1026;51.460;7.252;2022-07-29T06:32:22;20.60;57.60
2042;DHT22;1026;51.460;7.252;2022-07-29T06:34:48;20.60;57.80
2042;DHT22;1026;51.460;7.252;2022-07-29T06:37:14;20.60;57.70
2042;DHT22;1026;51.460;7.252;2022-07-29T06:39:39;20.60;57.80
2042;DHT22;1026;51.460;7.252;2022-07-29T06:42:05;20.60;57.80
2042;DHT22;1026;51.460;7.252;2022-07-29T06:44:32;20.60;57.90
2042;DHT22;1026;51.460;7.252;2022-07-29T06:46:59;20.60;57.90
2042;DHT22;1026;51.460;7.252;2022-07-29T06:49:25;20.50;57.90
2042;DHT22;1026;51.460;7.252;2022-07-29T06:51:52;20.60;58.00
2042;DHT22;1026;51.460;7.252;2022-07-29T06:54:18;20.40;57.80
2042;DHT22;1026;51.460;7.252;2022-07-29T06:56:43;20.50;57.90
2042;DHT22;1026;51.460;7.252;2022-07-29T06:59:10;20.60;58.10
2042;DHT22;1026;51.460;7.252;2022-07-29T07:01:38;20.50;58.00
2042;DHT22;1026;51.460;7.252;2022-07-29T07:04:05;20.60;58.20
2042;DHT22;1026;51.460;7.252;2022-07-29T07:06:30;20.50;58.10
2042;DHT22;1026;51.460;7.252;2022-07-29T07:08:56;20.50;58.10
2042;DHT22;1026;51.460;7.252;2022-07-29T07:11:22;20.50;58.10
2042;DHT22;1026;51.460;7.252;2022-07-29T07:13:47;20.50;58.10
2042;DHT22;1026;51.460;7.252;2022-07-29T07:16:13;20.50;58.10
2042;DHT22;1026;51.460;7.252;2022-07-29T07:18:39;20.50;58.00
2042;DHT22;1026;51.460;7.252;2022-07-29T07:21:04;20.50;58.10
2042;DHT22;1026;51.460;7.252;2022-07-29T07:23:31;20.50;58.20
2042;DHT22;1026;51.460;7.252;2022-07-29T07:25:56;20.60;58.20
2042;DHT22;1026;51.460;7.252;2022-07-29T07:28:22;20.50;58.00
2042;DHT22;1026;51.460;7.252;2022-07-29T07:30:48;20.60;58.20
2042;DHT22;1026;51.460;7.252;2022-07-29T07:33:14;20.60;58.20
2042;DHT22;1026;51.460;7.252;2022-07-29T07:35:40;20.60;58.20
2042;DHT22;1026;51.460;7.252;2022-07-29T07:38:06;20.60;58.20
2042;DHT22;1026;51.460;7.252;2022-07-29T07:40:32;20.60;58.10
2042;DHT22;1026;51.460;7.252;2022-07-29T07:42:58;20.60;58.10
2042;DHT22;1026;51.460;7.252;2022-07-29T07:45:24;20.60;58.10
2042;DHT22;1026;51.460;7.252;2022-07-29T07:47:50;20.60;58.10
2042;DHT22;1026;51.460;7.252;2022-07-29T07:50:16;20.60;58.10
2042;DHT22;1026;51.460;7.252;2022-07-29T07:52:52;20.60;58.10
2042;DHT22;1026;51.460;7.252;2022-07-29T07:55:19;20.60;58.10
2042;DHT22;1026;51.460;7.252;2022-07-29T07:57:45;20.70;58.20
2042;DHT22;1026;51.460;7.252;2022-07-29T08:00:13;20.70;58.10
2042;DHT22;1026;51.460;7.252;2022-07-29T08:02:40;20.70;58.40
2042;DHT22;1026;51.460;7.252;2022-07-29T08:05:07;20.70;58.60
2042;DHT22;1026;51.460;7.252;2022-07-29T08:07:33;20.70;58.50
2042;DHT22;1026;51.460;7.252;2022-07-29T08:09:58;20.70;58.60
2042;DHT22;1026;51.460;7.252;2022-07-29T08:12:24;20.70;58.40
2042;DHT22;1026;51.460;7.252;2022-07-29T08:14:50;20.70;58.30
2042;DHT22;1026;51.460;7.252;2022-07-29T08:17:15;20.70;58.30
2042;DHT22;1026;51.460;7.252;2022-07-29T08:19:41;20.80;58.40
2042;DHT22;1026;51.460;7.252;2022-07-29T08:22:07;20.70;58.30
2042;DHT22;1026;51.460;7.252;2022-07-29T08:24:32;20.70;58.20
2042;DHT22;1026;51.460;7.252;2022-07-29T08:27:13;20.80;58.30
2042;DHT22;1026;51.460;7.252;2022-07-29T08:29:39;20.80;58.30
2042;DHT22;1026;51.460;7.252;2022-07-29T08:32:05;20.80;58.30
2042;DHT22;1026;51.460;7.252;2022-07-29T08:34:32;20.80;58.30
2042;DHT22;1026;51.460;7.252;2022-07-29T08:36:58;20.80;58.20
2042;DHT22;1026;51.460;7.252;2022-07-29T08:39:25;20.80;58.20
2042;DHT22;1026;51.460;7.252;2022-07-29T08:41:51;20.90;58.20
2042;DHT22;1026;51.460;7.252;2022-07-29T08:44:18;20.90;58.30
2042;DHT22;1026;51.460;7.252;2022-07-29T08:46:44;20.90;58.30
2042;DHT22;1026;51.460;7.252;2022-07-29T08:49:10;20.80;58.50
2042;DHT22;1026;51.460;7.252;2022-07-29T08:51:38;20.90;58.30
2042;DHT22;1026;51.460;7.252;2022-07-29T08:54:05;20.90;58.30
2042;DHT22;1026;51.460;7.252;2022-07-29T08:56:32;20.90;58.20
2042;DHT22;1026;51.460;7.252;2022-07-29T08:58:59;20.90;58.20
2042;DHT22;1026;51.460;7.252;2022-07-29T09:01:29;20.90;58.20
2042;DHT22;1026;51.460;7.252;2022-07-29T09:03:59;20.90;58.20
2042;DHT22;1026;51.460;7.252;2022-07-29T09:06:30;20.90;58.20
2042;DHT22;1026;51.460;7.252;2022-07-29T09:08:59;20.90;58.20
2042;DHT22;1026;51.460;7.252;2022-07-29T09:11:26;21.00;58.30
2042;DHT22;1026;51.460;7.252;2022-07-29T09:13:51;21.00;58.30
2042;DHT22;1026;51.460;7.252;2022-07-29T09:16:17;21.00;58.20
2042;DHT22;1026;51.460;7.252;2022-07-29T09:18:45;21.00;58.20
2042;DHT22;1026;51.460;7.252;2022-07-29T09:21:14;21.00;58.30
2042;DHT22;1026;51.460;7.252;2022-07-29T09:24:11;21.00;58.20
2042;DHT22;1026;51.460;7.252;2022-07-29T09:26:40;21.00;58.70
2042;DHT22;1026;51.460;7.252;2022-07-29T09:29:09;21.00;58.50
2042;DHT22;1026;51.460;7.252;2022-07-29T09:31:37;21.00;58.50
2042;DHT22;1026;51.460;7.252;2022-07-29T09:34:04;20.90;58.30
2042;DHT22;1026;51.460;7.252;2022-07-29T09:36:30;21.00;58.60
2042;DHT22;1026;51.460;7.252;2022-07-29T09:38:58;21.00;58.70
2042;DHT22;1026;51.460;7.252;2022-07-29T09:41:25;21.00;58.70
2042;DHT22;1026;51.460;7.252;2022-07-29T09:43:54;21.00;58.60
2042;DHT22;1026;51.460;7.252;2022-07-29T09:46:20;21.00;58.50
2042;DHT22;1026;51.460;7.252;2022-07-29T09:49:07;21.00;58.40
2042;DHT22;1026;51.460;7.252;2022-07-29T09:51:34;21.10;58.40
2042;DHT22;1026;51.460;7.252;2022-07-29T09:54:00;21.10;58.30
2042;DHT22;1026;51.460;7.252;2022-07-29T09:56:44;21.00;58.40
2042;DHT22;1026;51.460;7.252;2022-07-29T09:59:09;21.10;58.50
2042;DHT22;1026;51.460;7.252;2022-07-29T10:01:37;21.10;58.40
2042;DHT22;1026;51.460;7.252;2022-07-29T10:04:03;21.10;58.40
2042;DHT22;1026;51.460;7.252;2022-07-29T10:06:28;21.10;58.40
2042;DHT22;1026;51.460;7.252;2022-07-29T10:08:54;21.10;58.40
2042;DHT22;1026;51.460;7.252;2022-07-29T10:11:20;21.10;58.40
2042;DHT22;1026;51.460;7.252;2022-07-29T10:13:47;21.10;58.40
2042;DHT22;1026;51.460;7.252;2022-07-29T10:16:15;21.10;58.50
2042;DHT22;1026;51.460;7.252;2022-07-29T10:18:42;21.10;58.50
2042;DHT22;1026;51.460;7.252;2022-07-29T10:21:09;21.10;58.50
2042;DHT22;1026;51.460;7.252;2022-07-29T10:23:36;21.10;58.50
2042;DHT22;1026;51.460;7.252;2022-07-29T10:26:03;21.10;58.50
2042;DHT22;1026;51.460;7.252;2022-07-29T10:28:30;21.10;58.50
2042;DHT22;1026;51.460;7.252;2022-07-29T10:31:01;21.10;58.50
2042;DHT22;1026;51.460;7.252;2022-07-29T10:33:41;21.10;58.50
2042;DHT22;1026;51.460;7.252;2022-07-29T10:39:26;21.10;58.50
2042;DHT22;1026;51.460;7.252;2022-07-29T10:42:17;21.10;58.60
2042;DHT22;1026;51.460;7.252;2022-07-29T10:44:43;21.10;58.60
2042;DHT22;1026;51.460;7.252;2022-07-29T10:47:25;21.10;58.50
2042;DHT22;1026;51.460;7.252;2022-07-29T10:52:21;21.10;58.70
2042;DHT22;1026;51.460;7.252;2022-07-29T10:54:49;21.10;58.60
2042;DHT22;1026;51.460;7.252;2022-07-29T10:57:20;21.00;58.50
2042;DHT22;1026;51.460;7.252;2022-07-29T10:59:50;21.10;58.70
2042;DHT22;1026;51.460;7.252;2022-07-29T11:07:24;21.10;58.60
2042;DHT22;1026;51.460;7.252;2022-07-29T11:10:21;21.10;58.60
2042;DHT22;1026;51.460;7.252;2022-07-29T11:12:47;21.10;58.60
2042;DHT22;1026;51.460;7.252;2022-07-29T11:15:15;21.10;58.60
2042;DHT22;1026;51.460;7.252;2022-07-29T11:20:39;21.10;58.60
2042;DHT22;1026;51.460;7.252;2022-07-29T11:23:27;21.10;58.70
2042;DHT22;1026;51.460;7.252;2022-07-29T11:28:39;20.90;63.90
2042;DHT22;1026;51.460;7.252;2022-07-29T11:31:09;20.90;64.80
2042;DHT22;1026;51.460;7.252;2022-07-29T11:33:36;20.80;65.20
2042;DHT22;1026;51.460;7.252;2022-07-29T11:38:32;20.80;63.90
2042;DHT22;1026;51.460;7.252;2022-07-29T11:41:22;20.90;63.10
2042;DHT22;1026;51.460;7.252;2022-07-29T11:43:54;20.90;62.60
2042;DHT22;1026;51.460;7.252;2022-07-29T11:46:45;21.00;62.50
2042;DHT22;1026;51.460;7.252;2022-07-29T11:49:13;21.10;62.30
2042;DHT22;1026;51.460;7.252;2022-07-29T11:51:51;21.00;62.10
2042;DHT22;1026;51.460;7.252;2022-07-29T11:54:26;21.10;62.30
2042;DHT22;1026;51.460;7.252;2022-07-29T11:56:52;21.10;62.50
2042;DHT22;1026;51.460;7.252;2022-07-29T11:59:19;21.10;62.00
2042;DHT22;1026;51.460;7.252;2022-07-29T12:02:00;21.00;61.80
2042;DHT22;1026;51.460;7.252;2022-07-29T12:04:27;21.10;61.70
2042;DHT22;1026;51.460;7.252;2022-07-29T12:06:53;21.10;61.70
2042;DHT22;1026;51.460;7.252;2022-07-29T12:09:20;21.10;61.80
2042;DHT22;1026;51.460;7.252;2022-07-29T12:11:47;21.10;61.70
2042;DHT22;1026;51.460;7.252;2022-07-29T12:14:29;21.10;61.90
2042;DHT22;1026;51.460;7.252;2022-07-29T12:16:56;21.10;62.60
2042;DHT22;1026;51.460;7.252;2022-07-29T12:19:22;21.10;62.60
2042;DHT22;1026;51.460;7.252;2022-07-29T12:21:50;21.10;62.30
2042;DHT22;1026;51.460;7.252;2022-07-29T12:24:17;21.10;62.10
2042;DHT22;1026;51.460;7.252;2022-07-29T12:26:59;21.10;62.00
2042;DHT22;1026;51.460;7.252;2022-07-29T12:29:25;21.20;62.10
2042;DHT22;1026;51.460;7.252;2022-07-29T12:31:53;21.20;61.80
2042;DHT22;1026;51.460;7.252;2022-07-29T12:34:22;21.20;61.90
2042;DHT22;1026;51.460;7.252;2022-07-29T12:36:48;21.20;62.00
2042;DHT22;1026;51.460;7.252;2022-07-29T12:39:15;21.20;61.70
2042;DHT22;1026;51.460;7.252;2022-07-29T12:41:41;21.20;61.60
2042;DHT22;1026;51.460;7.252;2022-07-29T12:44:07;21.20;61.50
2042;DHT22;1026;51.460;7.252;2022-07-29T12:46:33;21.20;62.80
2042;DHT22;1026;51.460;7.252;2022-07-29T12:48:58;21.20;62.10
2042;DHT22;1026;51.460;7.252;2022-07-29T12:51:39;21.10;62.00
2042;DHT22;1026;51.460;7.252;2022-07-29T12:54:08;21.20;61.50
2042;DHT22;1026;51.460;7.252;2022-07-29T12:56:36;21.30;61.70
2042;DHT22;1026;51.460;7.252;2022-07-29T13:01:38;21.30;62.70
2042;DHT22;1026;51.460;7.252;2022-07-29T13:04:04;21.30;62.50
2042;DHT22;1026;51.460;7.252;2022-07-29T13:06:34;21.30;62.00
2042;DHT22;1026;51.460;7.252;2022-07-29T13:09:17;21.40;61.90
2042;DHT22;1026;51.460;7.252;2022-07-29T13:11:47;21.40;61.70
2042;DHT22;1026;51.460;7.252;2022-07-29T13:14:29;21.40;62.30
2042;DHT22;1026;51.460;7.252;2022-07-29T13:17:06;21.40;62.50
2042;DHT22;1026;51.460;7.252;2022-07-29T13:19:36;21.40;62.30
2042;DHT22;1026;51.460;7.252;2022-07-29T13:22:02;21.50;62.30
2042;DHT22;1026;51.460;7.252;2022-07-29T13:24:28;21.50;62.70
2042;DHT22;1026;51.460;7.252;2022-07-29T13:26:54;21.50;62.30
2042;DHT22;1026;51.460;7.252;2022-07-29T13:29:19;21.50;62.00
2042;DHT22;1026;51.460;7.252;2022-07-29T13:31:45;21.60;62.40
2042;DHT22;1026;51.460;7.252;2022-07-29T13:34:11;21.60;62.20
2042;DHT22;1026;51.460;7.252;2022-07-29T13:36:36;21.60;62.30
2042;DHT22;1026;51.460;7.252;2022-07-29T13:39:02;21.60;61.90
2042;DHT22;1026;51.460;7.252;2022-07-29T13:41:28;21.70;62.50
2042;DHT22;1026;51.460;7.252;2022-07-29T13:43:54;21.70;61.90
2042;DHT22;1026;51.460;7.252;2022-07-29T13:46:20;21.70;61.80
2042;DHT22;1026;51.460;7.252;2022-07-29T13:48:46;21.80;61.70
2042;DHT22;1026;51.460;7.252;2022-07-29T13:51:12;21.80;61.80
2042;DHT22;1026;51.460;7.252;2022-07-29T13:53:38;21.80;62.10
2042;DHT22;1026;51.460;7.252;2022-07-29T13:56:04;21.90;61.50
2042;DHT22;1026;51.460;7.252;2022-07-29T13:58:33;21.90;61.10
2042;DHT22;1026;51.460;7.252;2022-07-29T14:00:59;22.00;61.10
2042;DHT22;1026;51.460;7.252;2022-07-29T14:03:24;22.00;60.80
2042;DHT22;1026;51.460;7.252;2022-07-29T14:05:50;22.00;61.00
2042;DHT22;1026;51.460;7.252;2022-07-29T14:08:16;22.00;61.20
2042;DHT22;1026;51.460;7.252;2022-07-29T14:10:42;22.00;60.60
2042;DHT22;1026;51.460;7.252;2022-07-29T14:13:08;22.10;60.50
2042;DHT22;1026;51.460;7.252;2022-07-29T14:15:33;22.10;61.30
2042;DHT22;1026;51.460;7.252;2022-07-29T14:17:59;22.20;60.70
2042;DHT22;1026;51.460;7.252;2022-07-29T14:20:26;22.20;60.70
2042;DHT22;1026;51.460;7.252;2022-07-29T14:22:53;22.30;60.10
2042;DHT22;1026;51.460;7.252;2022-07-29T14:25:19;22.30;59.90
2042;DHT22;1026;51.460;7.252;2022-07-29T14:27:44;22.30;60.00
2042;DHT22;1026;51.460;7.252;2022-07-29T14:30:10;22.40;60.00
2042;DHT22;1026;51.460;7.252;2022-07-29T14:32:36;22.40;59.90
2042;DHT22;1026;51.460;7.252;2022-07-29T14:35:02;22.40;60.00
2042;DHT22;1026;51.460;7.252;2022-07-29T14:37:28;22.50;59.90
2042;DHT22;1026;51.460;7.252;2022-07-29T14:39:53;22.50;59.70
2042;DHT22;1026;51.460;7.252;2022-07-29T14:42:24;22.60;60.00
2042;DHT22;1026;51.460;7.252;2022-07-29T14:44:50;22.60;59.70
2042;DHT22;1026;51.460;7.252;2022-07-29T14:47:16;22.70;59.20
2042;DHT22;1026;51.460;7.252;2022-07-29T14:49:41;22.70;59.40
2042;DHT22;1026;51.460;7.252;2022-07-29T14:52:07;22.70;59.40
2042;DHT22;1026;51.460;7.252;2022-07-29T14:54:33;22.80;59.20
2042;DHT22;1026;51.460;7.252;2022-07-29T14:56:58;22.80;59.00
2042;DHT22;1026;51.460;7.252;2022-07-29T14:59:24;22.80;58.80
2042;DHT22;1026;51.460;7.252;2022-07-29T15:01:50;22.90;58.60
2042;DHT22;1026;51.460;7.252;2022-07-29T15:04:16;22.90;57.90
2042;DHT22;1026;51.460;7.252;2022-07-29T15:06:42;23.00;58.00
2042;DHT22;1026;51.460;7.252;2022-07-29T15:09:08;23.00;58.10
2042;DHT22;1026;51.460;7.252;2022-07-29T15:11:34;23.10;58.00
2042;DHT22;1026;51.460;7.252;2022-07-29T15:13:59;23.10;57.90
2042;DHT22;1026;51.460;7.252;2022-07-29T15:16:25;23.10;57.90
2042;DHT22;1026;51.460;7.252;2022-07-29T15:18:50;23.20;58.00
2042;DHT22;1026;51.460;7.252;2022-07-29T15:21:16;23.20;58.00
2042;DHT22;1026;51.460;7.252;2022-07-29T15:23:42;23.10;57.60
2042;DHT22;1026;51.460;7.252;2022-07-29T15:26:07;23.30;57.80
2042;DHT22;1026;51.460;7.252;2022-07-29T15:28:33;23.30;57.80
2042;DHT22;1026;51.460;7.252;2022-07-29T15:30:59;23.30;58.00
2042;DHT22;1026;51.460;7.252;2022-07-29T15:33:25;23.30;57.60
2042;DHT22;1026;51.460;7.252;2022-07-29T15:35:51;23.40;57.90
2042;DHT22;1026;51.460;7.252;2022-07-29T15:38:17;23.40;57.60
2042;DHT22;1026;51.460;7.252;2022-07-29T15:40:43;23.40;57.80
2042;DHT22;1026;51.460;7.252;2022-07-29T15:43:09;23.40;57.90
2042;DHT22;1026;51.460;7.252;2022-07-29T15:45:38;23.50;58.00
2042;DHT22;1026;51.460;7.252;2022-07-29T15:48:05;23.40;57.80
2042;DHT22;1026;51.460;7.252;2022-07-29T15:50:32;23.50;57.80
2042;DHT22;1026;51.460;7.252;2022-07-29T15:52:58;23.50;57.70
2042;DHT22;1026;51.460;7.252;2022-07-29T15:55:23;23.50;57.60
2042;DHT22;1026;51.460;7.252;2022-07-29T15:57:49;23.60;57.60
2042;DHT22;1026;51.460;7.252;2022-07-29T16:00:15;23.50;57.50
2042;DHT22;1026;51.460;7.252;2022-07-29T16:02:42;23.60;57.40
2042;DHT22;1026;51.460;7.252;2022-07-29T16:05:09;23.60;57.50
2042;DHT22;1026;51.460;7.252;2022-07-29T16:07:35;23.60;58.10
2042;DHT22;1026;51.460;7.252;2022-07-29T16:10:00;23.60;58.10
2042;DHT22;1026;51.460;7.252;2022-07-29T16:12:26;23.60;58.00
2042;DHT22;1026;51.460;7.252;2022-07-29T16:14:52;23.60;58.10
2042;DHT22;1026;51.460;7.252;2022-07-29T16:17:18;23.70;58.60
2042;DHT22;1026;51.460;7.252;2022-07-29T16:19:44;23.70;58.20
2042;DHT22;1026;51.460;7.252;2022-07-29T16:22:10;23.70;58.20
2042;DHT22;1026;51.460;7.252;2022-07-29T16:24:36;23.70;58.20
2042;DHT22;1026;51.460;7.252;2022-07-29T16:27:03;23.70;58.20
2042;DHT22;1026;51.460;7.252;2022-07-29T16:29:29;23.70;58.20
2042;DHT22;1026;51.460;7.252;2022-07-29T16:31:55;23.70;58.20
2042;DHT22;1026;51.460;7.252;2022-07-29T16:34:20;23.80;58.50
2042;DHT22;1026;51.460;7.252;2022-07-29T16:36:46;23.70;58.00